createdAt,value
2019-01-29T00:01:54.904Z,7.53
2019-01-29T00:04:20.989Z,7.50
2019-01-29T00:06:47.142Z,7.70
2019-01-29T00:09:13.184Z,8.05
2019-01-29T00:11:39.455Z,7.30
2019-01-29T00:14:05.528Z,7.60
2019-01-29T00:16:31.578Z,7.00
2019-01-29T00:18:58.292Z,7.25
2019-01-29T00:21:24.529Z,7.50
2019-01-29T00:23:50.631Z,6.97
2019-01-29T00:26:16.777Z,7.05
2019-01-29T00:28:43.292Z,7.10
2019-01-29T00:31:09.377Z,6.60
2019-01-29T00:33:35.459Z,6.83
2019-01-29T00:36:01.506Z,6.97
2019-01-29T00:38:27.673Z,6.90
2019-01-29T00:40:53.845Z,6.30
2019-01-29T00:43:20.142Z,7.50
2019-01-29T00:45:46.311Z,6.47
2019-01-29T00:48:12.574Z,6.70
2019-01-29T00:50:39.880Z,6.42
2019-01-29T00:53:06.012Z,6.30
2019-01-29T00:55:32.133Z,7.00
2019-01-29T00:57:58.398Z,7.15
2019-01-29T01:00:24.694Z,7.37
2019-01-29T01:02:50.905Z,7.20
2019-01-29T01:05:17.571Z,6.42
2019-01-29T01:07:43.776Z,7.03
2019-01-29T01:10:13.074Z,7.40
2019-01-29T01:12:39.313Z,6.55
2019-01-29T01:15:08.397Z,6.62
2019-01-29T01:17:34.520Z,5.90
2019-01-29T01:20:01.394Z,6.00
2019-01-29T01:22:27.520Z,6.62
2019-01-29T01:24:53.725Z,5.90
2019-01-29T01:27:19.900Z,6.50
2019-01-29T01:29:46.301Z,6.12
2019-01-29T01:32:15.538Z,6.40
2019-01-29T01:34:41.874Z,5.78
2019-01-29T01:37:08.239Z,6.15
2019-01-29T01:39:34.573Z,7.00
2019-01-29T01:42:00.858Z,6.28
2019-01-29T01:44:27.080Z,6.70
2019-01-29T01:46:53.381Z,6.50
2019-01-29T01:49:22.784Z,7.00
2019-01-29T01:51:48.987Z,6.75
2019-01-29T01:54:15.209Z,5.78
2019-01-29T01:56:41.335Z,5.92
2019-01-29T01:59:07.458Z,6.00
2019-01-29T02:01:33.741Z,5.92
2019-01-29T02:04:00.033Z,6.00
2019-01-29T02:06:26.250Z,6.10
2019-01-29T02:08:52.362Z,6.33
2019-01-29T02:11:18.504Z,6.62
2019-01-29T02:13:44.622Z,6.50
2019-01-29T02:16:10.744Z,6.27
2019-01-29T02:18:36.903Z,6.43
2019-01-29T02:21:03.107Z,6.00
2019-01-29T02:23:29.190Z,6.10
2019-01-29T02:25:55.354Z,6.37
2019-01-29T02:28:21.601Z,6.28
2019-01-29T02:30:47.821Z,5.83
2019-01-29T02:33:14.401Z,5.62
2019-01-29T02:35:40.604Z,6.30
2019-01-29T02:38:06.687Z,6.47
2019-01-29T02:40:32.774Z,6.17
2019-01-29T02:42:58.921Z,6.50
2019-01-29T02:45:25.265Z,5.40
2019-01-29T02:47:51.465Z,5.40
2019-01-29T02:50:17.697Z,5.67
2019-01-29T02:52:44.136Z,5.30
2019-01-29T02:55:12.045Z,5.17
2019-01-29T02:57:38.356Z,4.67
2019-01-29T03:00:16.654Z,4.90
2019-01-29T03:02:43.343Z,5.05
2019-01-29T03:05:12.283Z,4.65
2019-01-29T03:07:39.130Z,5.00
2019-01-29T03:10:11.494Z,5.00
2019-01-29T03:12:37.572Z,5.53
2019-01-29T03:15:07.900Z,5.30
2019-01-29T03:17:34.039Z,5.35
2019-01-29T03:20:00.265Z,4.80
2019-01-29T03:22:26.425Z,5.33
2019-01-29T03:24:52.538Z,4.83
2019-01-29T03:27:18.693Z,5.90
2019-01-29T03:29:44.782Z,5.57
2019-01-29T03:32:10.873Z,5.78
2019-01-29T03:34:36.916Z,5.55
2019-01-29T03:37:03.178Z,5.20
2019-01-29T03:39:29.270Z,4.72
2019-01-29T03:41:55.440Z,5.10
2019-01-29T03:44:21.662Z,4.97
2019-01-29T03:46:47.786Z,5.15
2019-01-29T03:49:13.977Z,5.50
2019-01-29T03:51:40.120Z,4.53
2019-01-29T03:54:06.322Z,5.22
2019-01-29T03:56:38.219Z,5.33
2019-01-29T03:59:04.451Z,5.35
2019-01-29T04:01:37.295Z,5.12
2019-01-29T04:04:03.415Z,5.10
2019-01-29T04:06:29.452Z,5.33
2019-01-29T04:08:55.880Z,4.70
2019-01-29T04:11:22.019Z,4.70
2019-01-29T04:13:48.045Z,4.25
2019-01-29T04:16:14.273Z,5.10
2019-01-29T04:18:40.391Z,4.62
2019-01-29T04:21:07.035Z,5.10
2019-01-29T04:23:33.377Z,5.12
2019-01-29T04:25:59.484Z,5.30
2019-01-29T04:28:25.515Z,5.60
2019-01-29T04:30:51.619Z,4.70
2019-01-29T04:33:17.766Z,5.40
2019-01-29T04:35:43.823Z,5.15
2019-01-29T04:38:09.891Z,5.20
2019-01-29T04:40:36.017Z,4.77
2019-01-29T04:43:02.093Z,4.67
2019-01-29T04:45:28.150Z,5.20
2019-01-29T04:47:54.223Z,4.80
2019-01-29T04:50:20.452Z,4.70
2019-01-29T04:52:46.562Z,11.27
2019-01-29T04:55:14.793Z,13.75
2019-01-29T04:57:40.976Z,4.45
2019-01-29T05:00:10.689Z,4.62
2019-01-29T05:02:36.923Z,4.20
2019-01-29T05:05:06.499Z,4.10
2019-01-29T05:07:32.683Z,4.42
2019-01-29T05:09:58.928Z,4.27
2019-01-29T05:12:24.998Z,4.55
2019-01-29T05:14:51.158Z,4.05
2019-01-29T05:17:17.328Z,4.10
2019-01-29T05:19:43.472Z,4.03
2019-01-29T05:22:09.545Z,4.35
2019-01-29T05:24:35.764Z,4.27
2019-01-29T05:27:02.142Z,4.08
2019-01-29T05:29:28.403Z,4.35
2019-01-29T05:31:54.880Z,3.90
2019-01-29T05:34:21.032Z,4.30
2019-01-29T05:36:47.132Z,4.40
2019-01-29T05:39:13.207Z,4.22
2019-01-29T05:41:39.377Z,4.10
2019-01-29T05:44:08.492Z,3.62
2019-01-29T05:46:34.625Z,4.15
2019-01-29T05:49:04.929Z,4.30
2019-01-29T05:51:31.004Z,4.30
2019-01-29T05:53:57.142Z,4.22
2019-01-29T05:56:23.349Z,12.95
2019-01-29T05:58:56.601Z,12.75
2019-01-29T06:01:22.729Z,5.10
2019-01-29T06:03:48.869Z,4.37
2019-01-29T06:06:15.081Z,4.27
2019-01-29T06:08:41.204Z,4.15
2019-01-29T06:11:07.273Z,4.45
2019-01-29T06:13:33.417Z,4.05
2019-01-29T06:15:59.662Z,4.00
2019-01-29T06:18:34.059Z,5.15
2019-01-29T06:21:00.190Z,4.90
2019-01-29T06:23:26.435Z,4.65
2019-01-29T06:25:52.618Z,4.80
2019-01-29T06:28:20.554Z,5.03
2019-01-29T06:30:46.756Z,4.60
2019-01-29T06:33:12.895Z,4.58
2019-01-29T06:35:38.987Z,4.60
2019-01-29T06:38:05.496Z,4.75
2019-01-29T06:40:31.784Z,5.00
2019-01-29T06:42:58.034Z,5.10
2019-01-29T06:45:25.204Z,6.03
2019-01-29T06:47:51.545Z,5.33
2019-01-29T06:50:25.562Z,5.60
2019-01-29T06:52:55.341Z,6.08
2019-01-29T06:55:22.493Z,5.80
2019-01-29T06:57:55.066Z,5.70
2019-01-29T07:00:23.398Z,5.40
2019-01-29T07:02:49.823Z,5.08
2019-01-29T07:05:16.085Z,10.00
2019-01-29T07:07:42.177Z,9.70
2019-01-29T07:10:14.882Z,6.05
2019-01-29T07:12:40.913Z,5.67
2019-01-29T07:15:12.623Z,5.67
2019-01-29T07:17:38.780Z,5.78
2019-01-29T07:20:08.130Z,5.50
2019-01-29T07:22:34.882Z,5.70
2019-01-29T07:25:01.190Z,5.67
2019-01-29T07:27:27.219Z,5.53
2019-01-29T07:29:53.318Z,5.60
2019-01-29T07:32:19.399Z,5.50
2019-01-29T07:34:45.512Z,5.93
2019-01-29T07:37:11.618Z,6.00
2019-01-29T07:39:37.687Z,6.10
2019-01-29T07:42:04.392Z,5.50
2019-01-29T07:44:30.993Z,5.95
2019-01-29T07:46:57.154Z,6.07
2019-01-29T07:49:23.180Z,5.80
2019-01-29T07:51:49.311Z,6.00
2019-01-29T07:54:15.475Z,6.00
2019-01-29T07:56:41.706Z,5.12
2019-01-29T07:59:07.916Z,4.90
2019-01-29T08:01:34.038Z,5.58
2019-01-29T08:04:00.113Z,5.20
2019-01-29T08:06:26.172Z,5.50
2019-01-29T08:08:52.227Z,5.60
2019-01-29T08:11:18.271Z,5.60
2019-01-29T08:13:44.342Z,4.97
2019-01-29T08:16:10.455Z,5.75
2019-01-29T08:18:36.626Z,5.20
2019-01-29T08:21:02.945Z,5.85
2019-01-29T08:23:29.057Z,5.47
2019-01-29T08:25:55.123Z,5.53
2019-01-29T08:28:21.208Z,5.50
2019-01-29T08:30:47.349Z,5.10
2019-01-29T08:33:13.611Z,5.62
2019-01-29T08:35:41.514Z,6.00
2019-01-29T08:38:08.089Z,6.47
2019-01-29T08:40:34.261Z,5.80
2019-01-29T08:43:00.312Z,6.20
2019-01-29T08:45:29.574Z,5.40
2019-01-29T08:47:55.696Z,5.40
2019-01-29T08:50:23.259Z,4.95
2019-01-29T08:52:49.716Z,5.20
2019-01-29T08:55:15.838Z,6.15
2019-01-29T08:57:41.885Z,5.65
2019-01-29T09:00:11.668Z,5.60
2019-01-29T09:02:37.726Z,6.37
2019-01-29T09:05:06.503Z,6.40
2019-01-29T09:07:32.752Z,6.27
2019-01-29T09:09:58.983Z,6.80
2019-01-29T09:12:27.009Z,6.50
2019-01-29T09:14:53.081Z,6.70
2019-01-29T09:17:19.408Z,6.30
2019-01-29T09:19:45.434Z,8.40
2019-01-29T09:22:11.482Z,6.55
2019-01-29T09:24:37.863Z,6.15
2019-01-29T09:27:03.904Z,5.80
2019-01-29T09:29:29.992Z,5.60
2019-01-29T09:31:56.244Z,5.90
2019-01-29T09:34:22.289Z,5.58
2019-01-29T09:36:48.377Z,6.17
2019-01-29T09:39:14.457Z,6.17
2019-01-29T09:41:40.605Z,6.05
2019-01-29T09:44:06.648Z,5.78
2019-01-29T09:46:32.693Z,5.53
2019-01-29T09:48:58.784Z,5.60
2019-01-29T09:51:24.873Z,6.08
2019-01-29T09:53:50.942Z,5.92
2019-01-29T09:56:17.002Z,5.70
2019-01-29T09:58:43.130Z,5.95
2019-01-29T10:01:09.258Z,7.45
2019-01-29T10:03:35.388Z,6.83
2019-01-29T10:06:01.531Z,6.60
2019-01-29T10:08:27.569Z,5.87
2019-01-29T10:10:53.686Z,6.25
2019-01-29T10:13:19.795Z,6.10
2019-01-29T10:15:46.046Z,6.97
2019-01-29T10:18:12.077Z,7.20
2019-01-29T10:20:38.367Z,5.80
2019-01-29T10:23:04.515Z,5.87
2019-01-29T10:25:37.565Z,5.87
2019-01-29T10:27:58.687Z,4.75
2019-01-29T10:30:25.466Z,6.03
2019-01-29T10:32:51.529Z,6.20
2019-01-29T10:37:04.747Z,5.35
2019-01-29T10:39:31.105Z,5.30
2019-01-29T10:41:57.227Z,5.10
2019-01-29T10:44:23.288Z,5.25
2019-01-29T10:46:49.426Z,5.80
2019-01-29T10:49:15.551Z,5.30
2019-01-29T10:51:41.601Z,5.23
2019-01-29T10:54:07.728Z,11.18
2019-01-29T10:56:34.039Z,6.40
2019-01-29T10:59:00.116Z,4.90
2019-01-29T11:01:26.450Z,5.03
2019-01-29T11:03:52.586Z,4.40
2019-01-29T11:06:18.617Z,4.62
2019-01-29T11:08:44.658Z,4.22
2019-01-29T11:11:10.752Z,4.83
2019-01-29T11:13:36.805Z,6.33
2019-01-29T11:16:03.405Z,5.80
2019-01-29T11:18:29.534Z,5.80
2019-01-29T11:20:55.624Z,5.12
2019-01-29T11:23:21.937Z,6.55
2019-01-29T11:25:55.735Z,5.90
2019-01-29T11:28:16.136Z,7.47
2019-01-29T11:30:42.334Z,7.77
2019-01-29T11:33:08.892Z,6.27
2019-01-29T11:35:35.613Z,6.90
2019-01-29T11:38:01.907Z,6.97
2019-01-29T11:40:29.961Z,7.50
2019-01-29T11:42:56.361Z,7.28
2019-01-29T11:45:25.517Z,7.37
2019-01-29T11:47:51.548Z,8.20
2019-01-29T11:50:17.804Z,7.80
2019-01-29T11:52:43.857Z,6.72
2019-01-29T11:55:10.981Z,7.10
2019-01-29T11:57:37.100Z,6.40
2019-01-29T12:00:14.008Z,6.10
2019-01-29T12:02:40.059Z,5.65
2019-01-29T12:05:06.369Z,6.15
2019-01-29T12:07:32.592Z,5.60
2019-01-29T12:09:58.681Z,5.80
2019-01-29T12:12:24.767Z,5.45
2019-01-29T12:14:50.842Z,5.30
2019-01-29T12:17:16.940Z,6.03
2019-01-29T12:19:42.999Z,5.40
2019-01-29T12:22:09.082Z,5.42
2019-01-29T12:24:35.212Z,6.17
2019-01-29T12:27:01.357Z,6.70
2019-01-29T12:29:27.442Z,6.47
2019-01-29T12:31:53.512Z,7.15
2019-01-29T12:34:19.607Z,8.80
2019-01-29T12:36:45.729Z,9.20
2019-01-29T12:39:11.894Z,9.03
2019-01-29T12:41:37.967Z,9.10
2019-01-29T12:44:04.161Z,9.08
2019-01-29T12:46:30.491Z,9.98
2019-01-29T12:48:56.561Z,10.60
2019-01-29T12:51:24.562Z,11.03
2019-01-29T12:53:50.634Z,10.95
2019-01-29T12:56:21.593Z,12.25
2019-01-29T12:58:44.775Z,12.20
2019-01-29T13:01:10.870Z,11.57
2019-01-29T13:03:36.953Z,11.60
2019-01-29T13:06:03.449Z,10.65
2019-01-29T13:08:29.630Z,10.65
2019-01-29T13:10:55.884Z,10.90
2019-01-29T13:13:22.427Z,10.30
2019-01-29T13:15:48.590Z,10.20
2019-01-29T13:18:14.636Z,10.90
2019-01-29T13:20:40.726Z,10.93
2019-01-29T13:23:06.964Z,10.90
2019-01-29T13:25:33.122Z,9.90
2019-01-29T13:27:59.175Z,9.25
2019-01-29T13:30:30.518Z,9.80
2019-01-29T13:32:56.747Z,8.65
2019-01-29T13:35:26.630Z,10.17
2019-01-29T13:37:52.680Z,9.23
2019-01-29T13:40:18.829Z,9.35
2019-01-29T13:42:44.894Z,10.27
2019-01-29T13:45:13.618Z,9.90
2019-01-29T13:47:39.981Z,9.30
2019-01-29T13:50:15.875Z,9.80
2019-01-29T13:52:41.921Z,10.40
2019-01-29T13:55:11.216Z,9.43
2019-01-29T13:57:37.347Z,9.50
2019-01-29T14:00:07.335Z,10.70
2019-01-29T14:02:33.434Z,8.60
2019-01-29T14:04:59.500Z,9.45
2019-01-29T14:07:25.580Z,9.40
2019-01-29T14:09:51.762Z,8.28
2019-01-29T14:12:17.851Z,9.18
2019-01-29T14:14:44.163Z,8.90
2019-01-29T14:17:12.525Z,8.50
2019-01-29T14:19:38.756Z,8.50
2019-01-29T14:22:05.078Z,9.48
2019-01-29T14:24:31.138Z,9.43
2019-01-29T14:26:57.230Z,9.50
2019-01-29T14:29:23.307Z,9.70
2019-01-29T14:31:49.446Z,9.10
2019-01-29T14:34:15.910Z,9.43
2019-01-29T14:36:42.021Z,8.28
2019-01-29T14:39:14.999Z,8.73
2019-01-29T14:41:41.098Z,8.33
2019-01-29T14:44:07.590Z,7.40
2019-01-29T14:46:33.735Z,8.03
2019-01-29T14:48:59.959Z,9.10
2019-01-29T14:51:26.139Z,8.80
2019-01-29T14:53:52.226Z,7.93
2019-01-29T14:56:18.478Z,7.70
2019-01-29T14:58:44.559Z,7.40
2019-01-29T15:01:10.912Z,8.08
2019-01-29T15:03:37.257Z,7.50
2019-01-29T15:06:03.726Z,6.55
2019-01-29T15:08:29.986Z,7.60
2019-01-29T15:10:56.153Z,7.33
2019-01-29T15:13:22.212Z,7.22
2019-01-29T15:16:12.284Z,8.10
2019-01-29T15:18:40.341Z,7.70
2019-01-29T15:21:06.404Z,7.95
2019-01-29T15:23:32.550Z,7.75
2019-01-29T15:25:58.676Z,7.93
2019-01-29T15:28:24.857Z,7.90
2019-01-29T15:30:50.941Z,8.10
2019-01-29T15:33:17.089Z,7.92
2019-01-29T15:35:43.132Z,9.28
2019-01-29T15:38:09.273Z,9.28
2019-01-29T15:40:35.447Z,8.70
2019-01-29T15:43:01.719Z,10.40
2019-01-29T15:45:28.688Z,10.08
2019-01-29T15:47:54.900Z,9.53
2019-01-29T15:50:23.839Z,9.40
2019-01-29T15:52:49.997Z,9.45
2019-01-29T15:55:17.822Z,9.90
2019-01-29T15:57:44.976Z,11.70
2019-01-29T16:00:14.820Z,11.00
2019-01-29T16:02:40.897Z,11.20
2019-01-29T16:05:13.705Z,11.10
2019-01-29T16:07:39.864Z,11.83
2019-01-29T16:10:09.737Z,12.40
2019-01-29T16:12:35.931Z,12.10
2019-01-29T16:15:05.569Z,11.65
2019-01-29T16:17:31.627Z,12.78
2019-01-29T16:19:57.687Z,13.20
2019-01-29T16:22:26.347Z,13.60
2019-01-29T16:24:52.400Z,12.78
2019-01-29T16:27:22.851Z,13.90
2019-01-29T16:29:46.410Z,13.78
2019-01-29T16:32:12.450Z,14.30
2019-01-29T16:34:38.501Z,14.13
2019-01-29T16:37:04.567Z,14.83
2019-01-29T16:39:30.617Z,15.83
2019-01-29T16:41:56.728Z,14.20
2019-01-29T16:44:22.761Z,15.60
2019-01-29T16:46:49.400Z,15.48
2019-01-29T16:49:15.458Z,15.93
2019-01-29T16:51:42.630Z,16.30
2019-01-29T16:54:08.908Z,15.78
2019-01-29T16:56:35.138Z,16.48
2019-01-29T16:59:01.516Z,16.60
2019-01-29T17:01:27.747Z,17.07
2019-01-29T17:03:53.920Z,15.93
2019-01-29T17:06:19.954Z,16.65
2019-01-29T17:08:46.177Z,17.40
2019-01-29T17:11:14.145Z,17.10
2019-01-29T17:13:40.251Z,16.52
2019-01-29T17:16:06.317Z,17.48
2019-01-29T17:18:32.443Z,16.85
2019-01-29T17:20:58.562Z,17.05
2019-01-29T17:23:24.777Z,17.50
2019-01-29T17:25:50.987Z,17.32
2019-01-29T17:28:17.180Z,17.10
2019-01-29T17:30:43.947Z,17.12
2019-01-29T17:33:10.737Z,18.25
2019-01-29T17:35:38.648Z,17.00
2019-01-29T17:38:04.941Z,18.20
2019-01-29T17:40:31.050Z,17.27
2019-01-29T17:42:57.598Z,17.20
2019-01-29T17:45:26.239Z,17.60
2019-01-29T17:47:52.267Z,17.20
2019-01-29T17:50:24.699Z,15.80
2019-01-29T17:52:50.763Z,16.62
2019-01-29T17:55:17.528Z,17.12
2019-01-29T17:57:50.502Z,15.90
2019-01-29T18:00:21.126Z,16.42
2019-01-29T18:02:47.165Z,16.80
2019-01-29T18:05:13.452Z,16.42
2019-01-29T18:07:39.916Z,16.35
2019-01-29T18:10:09.366Z,17.45
2019-01-29T18:12:35.409Z,16.65
2019-01-29T18:15:02.201Z,16.05
2019-01-29T18:17:28.745Z,17.07
2019-01-29T18:19:54.798Z,17.10
2019-01-29T18:22:20.839Z,17.40
2019-01-29T18:24:46.918Z,17.50
2019-01-29T18:27:12.945Z,18.27
2019-01-29T18:29:39.187Z,16.82
2019-01-29T18:32:05.274Z,16.65
2019-01-29T18:34:31.446Z,17.57
2019-01-29T18:36:57.577Z,17.60
2019-01-29T18:39:23.664Z,18.23
2019-01-29T18:41:49.709Z,17.57
2019-01-29T18:44:16.045Z,17.70
2019-01-29T18:46:42.065Z,17.77
2019-01-29T18:49:08.101Z,18.40
2019-01-29T18:51:34.185Z,18.40
2019-01-29T18:54:00.248Z,18.80
2019-01-29T18:56:26.308Z,18.30
2019-01-29T18:58:52.476Z,16.65
2019-01-29T19:01:18.589Z,17.57
2019-01-29T19:03:44.909Z,17.52
2019-01-29T19:06:10.972Z,19.85
2019-01-29T19:08:41.870Z,19.30
2019-01-29T19:11:08.093Z,17.50
2019-01-29T19:13:34.124Z,18.52
2019-01-29T19:16:00.574Z,18.70
2019-01-29T19:18:26.676Z,19.32
2019-01-29T19:20:52.737Z,19.00
2019-01-29T19:23:18.892Z,20.15
2019-01-29T19:25:46.140Z,19.10
2019-01-29T19:28:21.418Z,18.62
2019-01-29T19:30:40.271Z,19.00
2019-01-29T19:33:06.363Z,18.10
2019-01-29T19:35:32.551Z,18.32
2019-01-29T19:37:59.026Z,17.77
2019-01-29T19:40:25.197Z,17.98
2019-01-29T19:42:51.250Z,18.10
2019-01-29T19:45:21.214Z,19.62
2019-01-29T19:47:47.643Z,19.17
2019-01-29T19:50:17.126Z,18.00
2019-01-29T19:52:43.606Z,19.60
2019-01-29T19:55:09.768Z,21.95
2019-01-29T19:57:35.902Z,22.30
2019-01-29T20:00:04.729Z,21.20
2019-01-29T20:02:31.243Z,21.75
2019-01-29T20:04:57.638Z,21.10
2019-01-29T20:07:23.696Z,21.60
2019-01-29T20:09:49.888Z,21.85
2019-01-29T20:12:16.079Z,22.07
2019-01-29T20:14:42.150Z,22.58
2019-01-29T20:17:08.267Z,22.40
2019-01-29T20:19:34.464Z,22.07
2019-01-29T20:22:00.513Z,22.82
2019-01-29T20:24:26.675Z,23.40
2019-01-29T20:26:52.680Z,23.05
2019-01-29T20:29:18.889Z,24.90
2019-01-29T20:31:45.301Z,25.93
2019-01-29T20:34:11.562Z,27.20
2019-01-29T20:36:37.703Z,26.27
2019-01-29T20:39:06.165Z,24.37
2019-01-29T20:41:32.305Z,24.53
2019-01-29T20:43:58.377Z,24.80
2019-01-29T20:46:24.530Z,25.10
2019-01-29T20:48:50.579Z,24.12
2019-01-29T20:51:16.722Z,26.00
2019-01-29T20:53:42.810Z,26.53
2019-01-29T20:56:08.929Z,26.12
2019-01-29T20:58:35.009Z,33.02
2019-01-29T21:01:01.316Z,28.60
2019-01-29T21:03:27.549Z,27.65
2019-01-29T21:05:53.598Z,25.82
2019-01-29T21:08:19.661Z,25.00
2019-01-29T21:10:46.188Z,27.37
2019-01-29T21:13:12.252Z,26.07
2019-01-29T21:15:38.903Z,24.40
2019-01-29T21:18:05.307Z,25.62
2019-01-29T21:20:31.639Z,24.82
2019-01-29T21:22:58.092Z,25.77
2019-01-29T21:25:24.225Z,26.00
2019-01-29T21:27:50.473Z,24.92
2019-01-29T21:30:29.141Z,26.63
2019-01-29T21:32:58.611Z,26.60
2019-01-29T21:35:24.854Z,26.77
2019-01-29T21:37:51.361Z,27.58
2019-01-29T21:40:18.025Z,28.60
2019-01-29T21:42:44.226Z,27.50
2019-01-29T21:45:15.881Z,26.70
2019-01-29T21:47:42.033Z,28.85
2019-01-29T21:50:14.129Z,27.20
2019-01-29T21:52:40.228Z,27.40
2019-01-29T21:55:08.872Z,26.30
2019-01-29T21:57:34.929Z,26.73
2019-01-29T22:00:00.996Z,26.50
2019-01-29T22:02:27.049Z,27.45
2019-01-29T22:04:53.126Z,27.25
2019-01-29T22:07:19.645Z,25.88
2019-01-29T22:09:46.122Z,27.05
2019-01-29T22:12:12.170Z,26.80
2019-01-29T22:14:38.221Z,28.83
2019-01-29T22:17:04.340Z,28.17
2019-01-29T22:19:30.886Z,27.45
2019-01-29T22:21:57.156Z,27.60
2019-01-29T22:24:23.504Z,27.82
2019-01-29T22:26:49.909Z,27.13
2019-01-29T22:29:23.150Z,26.97
2019-01-29T22:31:43.893Z,27.13
2019-01-29T22:34:10.014Z,27.65
2019-01-29T22:36:36.125Z,27.98
2019-01-29T22:39:06.061Z,27.58
2019-01-29T22:41:32.155Z,27.67
2019-01-29T22:43:58.230Z,26.80
2019-01-29T22:46:24.329Z,28.05
2019-01-29T22:48:50.400Z,26.95
2019-01-29T22:51:16.440Z,28.60
2019-01-29T22:53:42.704Z,28.25
2019-01-29T22:56:08.798Z,27.35
2019-01-29T22:58:34.983Z,28.07
2019-01-29T23:01:04.905Z,28.47
2019-01-29T23:03:37.364Z,42.83
2019-01-29T23:06:19.669Z,29.90
2019-01-29T23:08:45.705Z,28.42
2019-01-29T23:11:12.118Z,27.17
2019-01-29T23:13:38.182Z,27.73
2019-01-29T23:16:04.511Z,26.70
2019-01-29T23:18:30.648Z,27.35
2019-01-29T23:20:56.736Z,27.35
2019-01-29T23:23:23.036Z,27.82
2019-01-29T23:25:49.084Z,26.70
2019-01-29T23:28:15.135Z,25.77
2019-01-29T23:30:41.516Z,27.10
2019-01-29T23:33:07.717Z,27.17
2019-01-29T23:35:33.800Z,26.60
2019-01-29T23:37:59.872Z,27.48
2019-01-29T23:40:25.917Z,28.12
2019-01-29T23:42:51.986Z,27.97
2019-01-29T23:45:18.252Z,26.90
2019-01-29T23:47:44.324Z,28.00
2019-01-29T23:50:12.999Z,27.30
2019-01-29T23:52:39.144Z,29.57
2019-01-29T23:55:06.708Z,28.70
2019-01-29T23:57:32.767Z,29.00
2019-01-29T23:59:58.930Z,30.77
